Terminal Aerodrome Forecast
Issued by NWS

Home | Current Version | Previous Version | Text Only | Print | Product List | Glossary On
Versions: 1 2 3 4 5 6 7 8 9 10 11 12 13 14 15 16 17 18 19 20 21 22
511
FTUS43 KPAH 292321
TAFCGI
TAF
KCGI 292321Z 3000/3024 12007KT P6SM SCT050 BKN100
     FM300300 13008KT P6SM SCT025 BKN050
     FM300600 15009KT 3SM TSRA BR BKN025CB
     FM301000 17009KT 6SM -SHRA BR BKN025
     FM301400 19013G21KT P6SM SCT025 BKN250
     FM301800 20015G25KT 3SM TSRA OVC025CB
     FM302200 21012G20KT 6SM -SHRA BKN025=

USA.gov is the U.S. government's official web portal to all federal, state and local government web resources and services.